sensor_id;sensor_type;location;lat;lon;timestamp;P1;durP1;ratioP1;P2;durP2;ratioP2
13477;SDS011;12598;62.382;17.344;2023-03-13T00:00:08;0.60;;;0.40;;
13477;SDS011;12598;62.382;17.344;2023-03-13T00:01:13;0.40;;;0.30;;
13477;SDS011;12598;62.382;17.344;2023-03-13T00:02:15;1.02;;;0.50;;
13477;SDS011;12598;62.382;17.344;2023-03-13T00:03:17;0.40;;;0.30;;
13477;SDS011;12598;62.382;17.344;2023-03-13T00:04:19;0.47;;;0.40;;
13477;SDS011;12598;62.382;17.344;2023-03-13T00:05:21;0.63;;;0.40;;
13477;SDS011;12598;62.382;17.344;2023-03-13T00:06:23;1.00;;;0.50;;
13477;SDS011;12598;62.382;17.344;2023-03-13T00:07:27;0.52;;;0.40;;
13477;SDS011;12598;62.382;17.344;2023-03-13T00:08:29;0.70;;;0.50;;
13477;SDS011;12598;62.382;17.344;2023-03-13T00:09:31;0.63;;;0.43;;
13477;SDS011;12598;62.382;17.344;2023-03-13T00:10:35;0.68;;;0.50;;
13477;SDS011;12598;62.382;17.344;2023-03-13T00:11:42;0.88;;;0.50;;
13477;SDS011;12598;62.382;17.344;2023-03-13T00:12:45;0.80;;;0.50;;
13477;SDS011;12598;62.382;17.344;2023-03-13T00:13:46;0.50;;;0.40;;
13477;SDS011;12598;62.382;17.344;2023-03-13T00:14:48;0.45;;;0.45;;
13477;SDS011;12598;62.382;17.344;2023-03-13T00:15:57;0.52;;;0.52;;
13477;SDS011;12598;62.382;17.344;2023-03-13T00:17:00;0.80;;;0.60;;
13477;SDS011;12598;62.382;17.344;2023-03-13T00:18:03;0.70;;;0.60;;
13477;SDS011;12598;62.382;17.344;2023-03-13T00:19:06;0.88;;;0.63;;
13477;SDS011;12598;62.382;17.344;2023-03-13T00:20:09;2.25;;;0.60;;
13477;SDS011;12598;62.382;17.344;2023-03-13T00:21:11;0.68;;;0.40;;
13477;SDS011;12598;62.382;17.344;2023-03-13T00:22:13;0.70;;;0.50;;
13477;SDS011;12598;62.382;17.344;2023-03-13T00:23:15;0.90;;;0.65;;
13477;SDS011;12598;62.382;17.344;2023-03-13T00:24:17;1.10;;;0.40;;
13477;SDS011;12598;62.382;17.344;2023-03-13T00:25:19;0.47;;;0.40;;
13477;SDS011;12598;62.382;17.344;2023-03-13T00:26:21;1.33;;;0.52;;
13477;SDS011;12598;62.382;17.344;2023-03-13T00:27:24;0.68;;;0.50;;
13477;SDS011;12598;62.382;17.344;2023-03-13T00:28:27;0.95;;;0.50;;
13477;SDS011;12598;62.382;17.344;2023-03-13T00:29:33;0.98;;;0.50;;
13477;SDS011;12598;62.382;17.344;2023-03-13T00:30:35;0.60;;;0.50;;
13477;SDS011;12598;62.382;17.344;2023-03-13T00:31:37;0.90;;;0.50;;
13477;SDS011;12598;62.382;17.344;2023-03-13T00:32:39;0.50;;;0.30;;
13477;SDS011;12598;62.382;17.344;2023-03-13T00:33:44;0.68;;;0.50;;
13477;SDS011;12598;62.382;17.344;2023-03-13T00:34:48;1.05;;;0.60;;
13477;SDS011;12598;62.382;17.344;2023-03-13T00:35:50;0.43;;;0.43;;
13477;SDS011;12598;62.382;17.344;2023-03-13T00:36:52;1.38;;;0.70;;
13477;SDS011;12598;62.382;17.344;2023-03-13T00:37:56;0.65;;;0.50;;
13477;SDS011;12598;62.382;17.344;2023-03-13T00:38:58;0.80;;;0.50;;
13477;SDS011;12598;62.382;17.344;2023-03-13T00:40:00;0.55;;;0.40;;
13477;SDS011;12598;62.382;17.344;2023-03-13T00:42:08;0.40;;;0.40;;
13477;SDS011;12598;62.382;17.344;2023-03-13T00:43:10;0.90;;;0.43;;
13477;SDS011;12598;62.382;17.344;2023-03-13T00:44:13;0.65;;;0.50;;
13477;SDS011;12598;62.382;17.344;2023-03-13T00:45:15;0.60;;;0.30;;
13477;SDS011;12598;62.382;17.344;2023-03-13T00:46:18;0.60;;;0.57;;
13477;SDS011;12598;62.382;17.344;2023-03-13T00:47:22;0.50;;;0.32;;
13477;SDS011;12598;62.382;17.344;2023-03-13T00:48:24;0.60;;;0.38;;
13477;SDS011;12598;62.382;17.344;2023-03-13T00:49:27;0.52;;;0.47;;
13477;SDS011;12598;62.382;17.344;2023-03-13T00:50:28;0.73;;;0.50;;
13477;SDS011;12598;62.382;17.344;2023-03-13T00:51:30;0.68;;;0.40;;
13477;SDS011;12598;62.382;17.344;2023-03-13T00:52:32;0.60;;;0.47;;
13477;SDS011;12598;62.382;17.344;2023-03-13T00:53:34;0.77;;;0.50;;
13477;SDS011;12598;62.382;17.344;2023-03-13T00:54:36;1.05;;;0.50;;
13477;SDS011;12598;62.382;17.344;2023-03-13T00:55:49;1.08;;;0.60;;
13477;SDS011;12598;62.382;17.344;2023-03-13T00:56:52;0.75;;;0.50;;
13477;SDS011;12598;62.382;17.344;2023-03-13T00:57:54;0.70;;;0.55;;
13477;SDS011;12598;62.382;17.344;2023-03-13T00:58:56;1.27;;;0.47;;
13477;SDS011;12598;62.382;17.344;2023-03-13T01:00:00;0.50;;;0.40;;
13477;SDS011;12598;62.382;17.344;2023-03-13T01:01:08;0.47;;;0.30;;
13477;SDS011;12598;62.382;17.344;2023-03-13T01:02:15;0.93;;;0.40;;
13477;SDS011;12598;62.382;17.344;2023-03-13T01:03:18;0.70;;;0.40;;
13477;SDS011;12598;62.382;17.344;2023-03-13T01:04:21;1.02;;;0.50;;
13477;SDS011;12598;62.382;17.344;2023-03-13T01:05:23;1.27;;;0.40;;
13477;SDS011;12598;62.382;17.344;2023-03-13T01:06:26;0.85;;;0.60;;
13477;SDS011;12598;62.382;17.344;2023-03-13T01:07:31;1.23;;;0.60;;
13477;SDS011;12598;62.382;17.344;2023-03-13T01:08:34;0.70;;;0.50;;
13477;SDS011;12598;62.382;17.344;2023-03-13T01:09:36;2.40;;;1.58;;
13477;SDS011;12598;62.382;17.344;2023-03-13T01:10:38;3.15;;;2.22;;
13477;SDS011;12598;62.382;17.344;2023-03-13T01:11:41;3.58;;;2.50;;
13477;SDS011;12598;62.382;17.344;2023-03-13T01:12:46;4.63;;;3.10;;
13477;SDS011;12598;62.382;17.344;2023-03-13T01:13:48;5.55;;;3.08;;
13477;SDS011;12598;62.382;17.344;2023-03-13T01:14:52;3.58;;;3.13;;
13477;SDS011;12598;62.382;17.344;2023-03-13T01:15:55;3.80;;;3.08;;
13477;SDS011;12598;62.382;17.344;2023-03-13T01:16:57;3.58;;;2.72;;
13477;SDS011;12598;62.382;17.344;2023-03-13T01:17:59;3.00;;;2.60;;
13477;SDS011;12598;62.382;17.344;2023-03-13T01:19:03;2.40;;;2.10;;
13477;SDS011;12598;62.382;17.344;2023-03-13T01:20:13;3.33;;;2.20;;
13477;SDS011;12598;62.382;17.344;2023-03-13T01:21:16;2.30;;;2.00;;
13477;SDS011;12598;62.382;17.344;2023-03-13T01:22:21;2.50;;;2.10;;
13477;SDS011;12598;62.382;17.344;2023-03-13T01:23:23;2.78;;;2.20;;
13477;SDS011;12598;62.382;17.344;2023-03-13T01:24:26;2.50;;;1.70;;
13477;SDS011;12598;62.382;17.344;2023-03-13T01:25:27;1.67;;;1.45;;
13477;SDS011;12598;62.382;17.344;2023-03-13T01:26:29;1.50;;;1.33;;
13477;SDS011;12598;62.382;17.344;2023-03-13T01:27:32;1.83;;;1.52;;
13477;SDS011;12598;62.382;17.344;2023-03-13T01:28:35;1.55;;;1.35;;
13477;SDS011;12598;62.382;17.344;2023-03-13T01:29:37;1.50;;;1.25;;
13477;SDS011;12598;62.382;17.344;2023-03-13T01:30:39;1.67;;;1.20;;
13477;SDS011;12598;62.382;17.344;2023-03-13T01:31:43;1.83;;;0.98;;
13477;SDS011;12598;62.382;17.344;2023-03-13T01:32:45;1.40;;;1.05;;
13477;SDS011;12598;62.382;17.344;2023-03-13T01:33:48;1.27;;;0.82;;
13477;SDS011;12598;62.382;17.344;2023-03-13T01:34:51;1.85;;;1.20;;
13477;SDS011;12598;62.382;17.344;2023-03-13T01:35:59;0.93;;;0.70;;
13477;SDS011;12598;62.382;17.344;2023-03-13T01:37:03;0.85;;;0.80;;
13477;SDS011;12598;62.382;17.344;2023-03-13T01:38:05;0.85;;;0.60;;
13477;SDS011;12598;62.382;17.344;2023-03-13T01:39:07;0.98;;;0.88;;
13477;SDS011;12598;62.382;17.344;2023-03-13T01:40:09;1.05;;;1.00;;
13477;SDS011;12598;62.382;17.344;2023-03-13T01:41:12;1.10;;;0.90;;
13477;SDS011;12598;62.382;17.344;2023-03-13T01:42:16;0.80;;;0.80;;
13477;SDS011;12598;62.382;17.344;2023-03-13T01:43:22;0.98;;;0.70;;
13477;SDS011;12598;62.382;17.344;2023-03-13T01:44:28;0.80;;;0.60;;
13477;SDS011;12598;62.382;17.344;2023-03-13T01:47:02;0.80;;;0.68;;
13477;SDS011;12598;62.382;17.344;2023-03-13T01:48:33;1.30;;;0.70;;
13477;SDS011;12598;62.382;17.344;2023-03-13T01:49:56;1.10;;;0.45;;
13477;SDS011;12598;62.382;17.344;2023-03-13T01:52:27;0.70;;;0.50;;
13477;SDS011;12598;62.382;17.344;2023-03-13T01:53:44;0.60;;;0.50;;
13477;SDS011;12598;62.382;17.344;2023-03-13T01:54:50;0.82;;;0.52;;
13477;SDS011;12598;62.382;17.344;2023-03-13T01:55:57;0.80;;;0.50;;
13477;SDS011;12598;62.382;17.344;2023-03-13T01:57:20;0.70;;;0.70;;
13477;SDS011;12598;62.382;17.344;2023-03-13T01:58:26;0.50;;;0.50;;
13477;SDS011;12598;62.382;17.344;2023-03-13T01:59:31;0.60;;;0.57;;
13477;SDS011;12598;62.382;17.344;2023-03-13T02:00:38;0.70;;;0.60;;
13477;SDS011;12598;62.382;17.344;2023-03-13T02:01:43;1.00;;;0.65;;
13477;SDS011;12598;62.382;17.344;2023-03-13T02:02:49;0.60;;;0.60;;
13477;SDS011;12598;62.382;17.344;2023-03-13T02:03:54;0.93;;;0.73;;
13477;SDS011;12598;62.382;17.344;2023-03-13T02:04:58;0.95;;;0.65;;
13477;SDS011;12598;62.382;17.344;2023-03-13T02:06:03;0.80;;;0.60;;
13477;SDS011;12598;62.382;17.344;2023-03-13T02:07:12;0.90;;;0.50;;
13477;SDS011;12598;62.382;17.344;2023-03-13T02:08:18;1.20;;;0.68;;
13477;SDS011;12598;62.382;17.344;2023-03-13T02:09:25;1.00;;;0.50;;
13477;SDS011;12598;62.382;17.344;2023-03-13T02:10:34;0.73;;;0.57;;
13477;SDS011;12598;62.382;17.344;2023-03-13T02:11:53;0.52;;;0.40;;
13477;SDS011;12598;62.382;17.344;2023-03-13T02:12:59;0.73;;;0.47;;
13477;SDS011;12598;62.382;17.344;2023-03-13T02:14:03;0.75;;;0.40;;
13477;SDS011;12598;62.382;17.344;2023-03-13T02:15:09;0.40;;;0.30;;
13477;SDS011;12598;62.382;17.344;2023-03-13T02:16:14;0.50;;;0.50;;
13477;SDS011;12598;62.382;17.344;2023-03-13T02:17:21;0.50;;;0.30;;
13477;SDS011;12598;62.382;17.344;2023-03-13T02:18:24;0.38;;;0.30;;
13477;SDS011;12598;62.382;17.344;2023-03-13T02:19:41;1.13;;;0.60;;
13477;SDS011;12598;62.382;17.344;2023-03-13T02:20:45;0.50;;;0.38;;
13477;SDS011;12598;62.382;17.344;2023-03-13T02:21:51;0.82;;;0.43;;
13477;SDS011;12598;62.382;17.344;2023-03-13T02:23:17;0.38;;;0.38;;
13477;SDS011;12598;62.382;17.344;2023-03-13T02:26:12;0.32;;;0.30;;
13477;SDS011;12598;62.382;17.344;2023-03-13T02:27:14;0.40;;;0.40;;
13477;SDS011;12598;62.382;17.344;2023-03-13T02:28:18;0.60;;;0.50;;
13477;SDS011;12598;62.382;17.344;2023-03-13T02:29:24;0.60;;;0.60;;
13477;SDS011;12598;62.382;17.344;2023-03-13T02:30:27;0.85;;;0.50;;
13477;SDS011;12598;62.382;17.344;2023-03-13T02:31:29;0.40;;;0.30;;
13477;SDS011;12598;62.382;17.344;2023-03-13T02:32:32;0.40;;;0.40;;
13477;SDS011;12598;62.382;17.344;2023-03-13T02:33:36;0.50;;;0.40;;
13477;SDS011;12598;62.382;17.344;2023-03-13T02:34:43;0.82;;;0.40;;
13477;SDS011;12598;62.382;17.344;2023-03-13T02:35:48;0.60;;;0.30;;
13477;SDS011;12598;62.382;17.344;2023-03-13T02:36:52;0.75;;;0.40;;
13477;SDS011;12598;62.382;17.344;2023-03-13T02:37:56;0.57;;;0.50;;
13477;SDS011;12598;62.382;17.344;2023-03-13T02:39:03;0.63;;;0.50;;
13477;SDS011;12598;62.382;17.344;2023-03-13T02:40:07;1.10;;;0.50;;
13477;SDS011;12598;62.382;17.344;2023-03-13T02:41:13;0.93;;;0.57;;
13477;SDS011;12598;62.382;17.344;2023-03-13T02:42:16;1.90;;;0.50;;
13477;SDS011;12598;62.382;17.344;2023-03-13T02:43:32;0.63;;;0.40;;
13477;SDS011;12598;62.382;17.344;2023-03-13T02:44:39;1.00;;;0.40;;
13477;SDS011;12598;62.382;17.344;2023-03-13T02:45:59;1.15;;;0.40;;
13477;SDS011;12598;62.382;17.344;2023-03-13T02:47:22;0.60;;;0.40;;
13477;SDS011;12598;62.382;17.344;2023-03-13T02:48:29;0.43;;;0.30;;
13477;SDS011;12598;62.382;17.344;2023-03-13T02:49:35;1.27;;;0.50;;
13477;SDS011;12598;62.382;17.344;2023-03-13T02:50:37;1.15;;;0.45;;
13477;SDS011;12598;62.382;17.344;2023-03-13T02:51:41;0.55;;;0.50;;
13477;SDS011;12598;62.382;17.344;2023-03-13T02:52:58;0.65;;;0.38;;
13477;SDS011;12598;62.382;17.344;2023-03-13T02:54:05;0.40;;;0.32;;
13477;SDS011;12598;62.382;17.344;2023-03-13T02:55:15;1.95;;;0.40;;
13477;SDS011;12598;62.382;17.344;2023-03-13T02:56:23;0.52;;;0.30;;
13477;SDS011;12598;62.382;17.344;2023-03-13T02:57:28;0.88;;;0.40;;
13477;SDS011;12598;62.382;17.344;2023-03-13T02:58:38;0.60;;;0.40;;
13477;SDS011;12598;62.382;17.344;2023-03-13T02:59:53;0.40;;;0.40;;
13477;SDS011;12598;62.382;17.344;2023-03-13T03:00:55;0.47;;;0.40;;
13477;SDS011;12598;62.382;17.344;2023-03-13T03:01:57;0.32;;;0.30;;
13477;SDS011;12598;62.382;17.344;2023-03-13T03:02:59;0.50;;;0.50;;
13477;SDS011;12598;62.382;17.344;2023-03-13T03:04:01;0.35;;;0.35;;
13477;SDS011;12598;62.382;17.344;2023-03-13T03:05:04;0.40;;;0.30;;
13477;SDS011;12598;62.382;17.344;2023-03-13T03:06:06;0.50;;;0.40;;
13477;SDS011;12598;62.382;17.344;2023-03-13T03:07:09;1.58;;;0.45;;
13477;SDS011;12598;62.382;17.344;2023-03-13T03:08:11;0.30;;;0.30;;
13477;SDS011;12598;62.382;17.344;2023-03-13T03:09:13;0.40;;;0.40;;
13477;SDS011;12598;62.382;17.344;2023-03-13T03:10:15;0.45;;;0.45;;
13477;SDS011;12598;62.382;17.344;2023-03-13T03:11:18;0.38;;;0.32;;
13477;SDS011;12598;62.382;17.344;2023-03-13T03:12:24;0.63;;;0.50;;
13477;SDS011;12598;62.382;17.344;2023-03-13T03:13:26;0.50;;;0.40;;
13477;SDS011;12598;62.382;17.344;2023-03-13T03:14:29;0.63;;;0.50;;
13477;SDS011;12598;62.382;17.344;2023-03-13T03:15:31;0.50;;;0.40;;
13477;SDS011;12598;62.382;17.344;2023-03-13T03:16:34;0.40;;;0.40;;
13477;SDS011;12598;62.382;17.344;2023-03-13T03:17:38;1.50;;;0.50;;
13477;SDS011;12598;62.382;17.344;2023-03-13T03:18:42;0.98;;;0.38;;
13477;SDS011;12598;62.382;17.344;2023-03-13T03:19:45;0.65;;;0.40;;
13477;SDS011;12598;62.382;17.344;2023-03-13T03:20:46;0.40;;;0.40;;
13477;SDS011;12598;62.382;17.344;2023-03-13T03:21:48;1.45;;;0.52;;
13477;SDS011;12598;62.382;17.344;2023-03-13T03:22:52;1.67;;;0.65;;
13477;SDS011;12598;62.382;17.344;2023-03-13T03:23:54;0.60;;;0.50;;
13477;SDS011;12598;62.382;17.344;2023-03-13T03:24:57;0.85;;;0.35;;
13477;SDS011;12598;62.382;17.344;2023-03-13T03:25:59;0.98;;;0.40;;
13477;SDS011;12598;62.382;17.344;2023-03-13T03:27:04;0.40;;;0.40;;
13477;SDS011;12598;62.382;17.344;2023-03-13T03:28:12;0.52;;;0.50;;
13477;SDS011;12598;62.382;17.344;2023-03-13T03:29:15;0.70;;;0.60;;
13477;SDS011;12598;62.382;17.344;2023-03-13T03:30:21;1.38;;;0.50;;
13477;SDS011;12598;62.382;17.344;2023-03-13T03:31:25;0.60;;;0.50;;
13477;SDS011;12598;62.382;17.344;2023-03-13T03:32:29;0.73;;;0.40;;
13477;SDS011;12598;62.382;17.344;2023-03-13T03:33:32;0.65;;;0.38;;
13477;SDS011;12598;62.382;17.344;2023-03-13T03:34:38;0.40;;;0.40;;
13477;SDS011;12598;62.382;17.344;2023-03-13T03:35:41;0.50;;;0.50;;
13477;SDS011;12598;62.382;17.344;2023-03-13T03:36:43;0.40;;;0.30;;
13477;SDS011;12598;62.382;17.344;2023-03-13T03:37:45;0.57;;;0.30;;
13477;SDS011;12598;62.382;17.344;2023-03-13T03:38:47;1.48;;;0.60;;
13477;SDS011;12598;62.382;17.344;2023-03-13T03:39:51;0.50;;;0.50;;
13477;SDS011;12598;62.382;17.344;2023-03-13T03:40:53;0.57;;;0.40;;
13477;SDS011;12598;62.382;17.344;2023-03-13T03:41:55;0.57;;;0.57;;
13477;SDS011;12598;62.382;17.344;2023-03-13T03:42:58;0.80;;;0.60;;
13477;SDS011;12598;62.382;17.344;2023-03-13T03:44:00;0.40;;;0.40;;
13477;SDS011;12598;62.382;17.344;2023-03-13T03:45:12;0.80;;;0.35;;
13477;SDS011;12598;62.382;17.344;2023-03-13T03:46:14;0.40;;;0.40;;
13477;SDS011;12598;62.382;17.344;2023-03-13T03:47:16;1.00;;;0.55;;
13477;SDS011;12598;62.382;17.344;2023-03-13T03:48:21;0.50;;;0.50;;
13477;SDS011;12598;62.382;17.344;2023-03-13T03:49:22;0.80;;;0.35;;
13477;SDS011;12598;62.382;17.344;2023-03-13T03:50:25;1.88;;;0.63;;
13477;SDS011;12598;62.382;17.344;2023-03-13T03:51:32;0.73;;;0.55;;
13477;SDS011;12598;62.382;17.344;2023-03-13T03:52:35;0.47;;;0.47;;
13477;SDS011;12598;62.382;17.344;2023-03-13T03:53:37;0.95;;;0.38;;
13477;SDS011;12598;62.382;17.344;2023-03-13T03:54:40;0.50;;;0.40;;
13477;SDS011;12598;62.382;17.344;2023-03-13T03:55:42;0.80;;;0.50;;
13477;SDS011;12598;62.382;17.344;2023-03-13T03:56:44;1.05;;;0.45;;
13477;SDS011;12598;62.382;17.344;2023-03-13T03:57:46;0.50;;;0.40;;
13477;SDS011;12598;62.382;17.344;2023-03-13T03:58:54;2.70;;;0.47;;
13477;SDS011;12598;62.382;17.344;2023-03-13T04:00:16;1.23;;;0.50;;
13477;SDS011;12598;62.382;17.344;2023-03-13T04:01:25;0.40;;;0.35;;
13477;SDS011;12598;62.382;17.344;2023-03-13T04:02:27;1.45;;;0.30;;
13477;SDS011;12598;62.382;17.344;2023-03-13T04:03:29;0.70;;;0.40;;
13477;SDS011;12598;62.382;17.344;2023-03-13T04:04:31;1.20;;;0.20;;
13477;SDS011;12598;62.382;17.344;2023-03-13T04:06:05;1.40;;;0.30;;
13477;SDS011;12598;62.382;17.344;2023-03-13T04:07:07;1.10;;;0.40;;
13477;SDS011;12598;62.382;17.344;2023-03-13T04:08:10;0.68;;;0.50;;
13477;SDS011;12598;62.382;17.344;2023-03-13T04:09:12;0.57;;;0.43;;
13477;SDS011;12598;62.382;17.344;2023-03-13T04:10:13;1.70;;;0.45;;
13477;SDS011;12598;62.382;17.344;2023-03-13T04:11:18;0.40;;;0.38;;
13477;SDS011;12598;62.382;17.344;2023-03-13T04:12:24;0.70;;;0.50;;
13477;SDS011;12598;62.382;17.344;2023-03-13T04:13:28;0.70;;;0.47;;
13477;SDS011;12598;62.382;17.344;2023-03-13T04:14:31;1.48;;;0.52;;
13477;SDS011;12598;62.382;17.344;2023-03-13T04:15:37;0.98;;;0.40;;
13477;SDS011;12598;62.382;17.344;2023-03-13T04:16:42;0.60;;;0.40;;
13477;SDS011;12598;62.382;17.344;2023-03-13T04:17:44;0.50;;;0.50;;
13477;SDS011;12598;62.382;17.344;2023-03-13T04:18:46;1.38;;;0.50;;
13477;SDS011;12598;62.382;17.344;2023-03-13T04:19:50;0.85;;;0.55;;
13477;SDS011;12598;62.382;17.344;2023-03-13T04:20:58;1.50;;;0.60;;
13477;SDS011;12598;62.382;17.344;2023-03-13T04:22:11;0.90;;;0.50;;
13477;SDS011;12598;62.382;17.344;2023-03-13T04:23:18;1.38;;;0.50;;
13477;SDS011;12598;62.382;17.344;2023-03-13T04:24:20;0.63;;;0.43;;
13477;SDS011;12598;62.382;17.344;2023-03-13T04:25:22;0.57;;;0.47;;
13477;SDS011;12598;62.382;17.344;2023-03-13T04:26:26;1.60;;;0.57;;
13477;SDS011;12598;62.382;17.344;2023-03-13T04:27:31;1.42;;;0.95;;
13477;SDS011;12598;62.382;17.344;2023-03-13T04:28:34;0.90;;;0.63;;
13477;SDS011;12598;62.382;17.344;2023-03-13T04:29:38;0.95;;;0.65;;
13477;SDS011;12598;62.382;17.344;2023-03-13T04:30:59;1.02;;;0.50;;
13477;SDS011;12598;62.382;17.344;2023-03-13T04:32:20;1.17;;;0.60;;
13477;SDS011;12598;62.382;17.344;2023-03-13T04:33:54;1.15;;;0.55;;
13477;SDS011;12598;62.382;17.344;2023-03-13T04:35:10;0.75;;;0.40;;
13477;SDS011;12598;62.382;17.344;2023-03-13T04:36:31;0.40;;;0.40;;
13477;SDS011;12598;62.382;17.344;2023-03-13T04:37:51;1.63;;;0.80;;
13477;SDS011;12598;62.382;17.344;2023-03-13T04:39:09;1.73;;;0.43;;
13477;SDS011;12598;62.382;17.344;2023-03-13T04:40:40;0.70;;;0.40;;
13477;SDS011;12598;62.382;17.344;2023-03-13T04:42:12;0.88;;;0.50;;
13477;SDS011;12598;62.382;17.344;2023-03-13T04:43:34;0.43;;;0.30;;
13477;SDS011;12598;62.382;17.344;2023-03-13T04:44:46;0.90;;;0.55;;
13477;SDS011;12598;62.382;17.344;2023-03-13T04:46:06;1.17;;;0.52;;
13477;SDS011;12598;62.382;17.344;2023-03-13T04:47:20;1.60;;;0.60;;
13477;SDS011;12598;62.382;17.344;2023-03-13T04:48:38;1.17;;;0.60;;
13477;SDS011;12598;62.382;17.344;2023-03-13T04:49:59;1.75;;;0.63;;
13477;SDS011;12598;62.382;17.344;2023-03-13T04:51:16;1.13;;;0.63;;
13477;SDS011;12598;62.382;17.344;2023-03-13T04:52:50;1.88;;;0.40;;
13477;SDS011;12598;62.382;17.344;2023-03-13T04:54:01;1.88;;;0.30;;
13477;SDS011;12598;62.382;17.344;2023-03-13T04:55:15;2.72;;;0.70;;
13477;SDS011;12598;62.382;17.344;2023-03-13T04:56:33;1.25;;;0.50;;
13477;SDS011;12598;62.382;17.344;2023-03-13T04:58:02;1.13;;;0.40;;
13477;SDS011;12598;62.382;17.344;2023-03-13T04:59:14;2.35;;;0.68;;
13477;SDS011;12598;62.382;17.344;2023-03-13T05:00:33;1.15;;;0.60;;
13477;SDS011;12598;62.382;17.344;2023-03-13T05:01:53;1.08;;;0.60;;
13477;SDS011;12598;62.382;17.344;2023-03-13T05:03:30;0.38;;;0.30;;
13477;SDS011;12598;62.382;17.344;2023-03-13T05:04:49;0.60;;;0.40;;
13477;SDS011;12598;62.382;17.344;2023-03-13T05:06:18;1.02;;;0.70;;
13477;SDS011;12598;62.382;17.344;2023-03-13T05:07:46;0.77;;;0.68;;
13477;SDS011;12598;62.382;17.344;2023-03-13T05:09:07;3.00;;;1.55;;
13477;SDS011;12598;62.382;17.344;2023-03-13T05:10:38;2.08;;;1.70;;
13477;SDS011;12598;62.382;17.344;2023-03-13T05:11:39;1.95;;;1.70;;
13477;SDS011;12598;62.382;17.344;2023-03-13T05:13:01;1.80;;;1.45;;
13477;SDS011;12598;62.382;17.344;2023-03-13T05:14:32;1.92;;;1.50;;
13477;SDS011;12598;62.382;17.344;2023-03-13T05:15:52;2.35;;;1.33;;
13477;SDS011;12598;62.382;17.344;2023-03-13T05:17:03;1.80;;;1.30;;
13477;SDS011;12598;62.382;17.344;2023-03-13T05:18:27;1.65;;;1.40;;
13477;SDS011;12598;62.382;17.344;2023-03-13T05:19:49;2.47;;;1.38;;
13477;SDS011;12598;62.382;17.344;2023-03-13T05:21:11;1.42;;;1.05;;
13477;SDS011;12598;62.382;17.344;2023-03-13T05:22:30;1.70;;;1.23;;
13477;SDS011;12598;62.382;17.344;2023-03-13T05:23:50;1.95;;;1.05;;
13477;SDS011;12598;62.382;17.344;2023-03-13T05:25:12;1.17;;;0.88;;
13477;SDS011;12598;62.382;17.344;2023-03-13T05:26:46;1.67;;;1.23;;
13477;SDS011;12598;62.382;17.344;2023-03-13T05:28:07;1.55;;;0.80;;
13477;SDS011;12598;62.382;17.344;2023-03-13T05:29:41;2.83;;;0.85;;
13477;SDS011;12598;62.382;17.344;2023-03-13T05:31:09;0.98;;;0.88;;
13477;SDS011;12598;62.382;17.344;2023-03-13T05:32:31;1.02;;;0.70;;
13477;SDS011;12598;62.382;17.344;2023-03-13T05:33:33;1.60;;;0.88;;
13477;SDS011;12598;62.382;17.344;2023-03-13T05:35:00;1.75;;;0.70;;
13477;SDS011;12598;62.382;17.344;2023-03-13T05:36:31;2.42;;;0.85;;
13477;SDS011;12598;62.382;17.344;2023-03-13T05:38:02;0.77;;;0.77;;
13477;SDS011;12598;62.382;17.344;2023-03-13T05:39:15;4.78;;;1.00;;
13477;SDS011;12598;62.382;17.344;2023-03-13T05:40:41;1.27;;;0.93;;
13477;SDS011;12598;62.382;17.344;2023-03-13T05:42:01;1.40;;;0.82;;
13477;SDS011;12598;62.382;17.344;2023-03-13T05:43:26;1.40;;;0.85;;
13477;SDS011;12598;62.382;17.344;2023-03-13T05:44:46;2.42;;;0.85;;
13477;SDS011;12598;62.382;17.344;2023-03-13T05:45:48;2.40;;;1.13;;
13477;SDS011;12598;62.382;17.344;2023-03-13T05:47:09;1.40;;;0.98;;
13477;SDS011;12598;62.382;17.344;2023-03-13T05:48:30;2.58;;;0.82;;
13477;SDS011;12598;62.382;17.344;2023-03-13T05:49:49;1.60;;;0.80;;
13477;SDS011;12598;62.382;17.344;2023-03-13T05:51:06;1.45;;;1.05;;
13477;SDS011;12598;62.382;17.344;2023-03-13T05:52:20;3.28;;;1.17;;
13477;SDS011;12598;62.382;17.344;2023-03-13T05:53:34;2.58;;;0.80;;
13477;SDS011;12598;62.382;17.344;2023-03-13T05:54:45;1.00;;;0.60;;
13477;SDS011;12598;62.382;17.344;2023-03-13T05:56:06;1.52;;;0.60;;
13477;SDS011;12598;62.382;17.344;2023-03-13T05:57:31;2.33;;;0.90;;
13477;SDS011;12598;62.382;17.344;2023-03-13T05:58:55;2.38;;;0.80;;
13477;SDS011;12598;62.382;17.344;2023-03-13T06:00:16;2.63;;;0.75;;
13477;SDS011;12598;62.382;17.344;2023-03-13T06:01:47;1.75;;;0.80;;
13477;SDS011;12598;62.382;17.344;2023-03-13T06:02:59;1.65;;;1.00;;
13477;SDS011;12598;62.382;17.344;2023-03-13T06:04:09;2.97;;;0.82;;
13477;SDS011;12598;62.382;17.344;2023-03-13T06:05:13;1.98;;;0.77;;
13477;SDS011;12598;62.382;17.344;2023-03-13T06:06:15;3.35;;;1.00;;
13477;SDS011;12598;62.382;17.344;2023-03-13T06:07:20;2.60;;;0.80;;
13477;SDS011;12598;62.382;17.344;2023-03-13T06:08:22;3.05;;;1.17;;
13477;SDS011;12598;62.382;17.344;2023-03-13T06:09:24;4.72;;;1.10;;
13477;SDS011;12598;62.382;17.344;2023-03-13T06:10:28;3.17;;;1.15;;
13477;SDS011;12598;62.382;17.344;2023-03-13T06:11:32;3.53;;;1.23;;
13477;SDS011;12598;62.382;17.344;2023-03-13T06:12:34;6.78;;;1.20;;
13477;SDS011;12598;62.382;17.344;2023-03-13T06:13:37;3.95;;;1.20;;
13477;SDS011;12598;62.382;17.344;2023-03-13T06:15:00;6.10;;;1.35;;
13477;SDS011;12598;62.382;17.344;2023-03-13T06:16:22;3.38;;;1.10;;
13477;SDS011;12598;62.382;17.344;2023-03-13T06:17:24;6.95;;;1.50;;
13477;SDS011;12598;62.382;17.344;2023-03-13T06:18:26;4.15;;;1.23;;
13477;SDS011;12598;62.382;17.344;2023-03-13T06:19:27;3.75;;;1.40;;
13477;SDS011;12598;62.382;17.344;2023-03-13T06:20:29;2.30;;;1.20;;
13477;SDS011;12598;62.382;17.344;2023-03-13T06:21:31;5.88;;;1.60;;
13477;SDS011;12598;62.382;17.344;2023-03-13T06:22:33;6.35;;;1.30;;
13477;SDS011;12598;62.382;17.344;2023-03-13T06:23:35;4.07;;;1.80;;
13477;SDS011;12598;62.382;17.344;2023-03-13T06:24:37;4.30;;;1.70;;
13477;SDS011;12598;62.382;17.344;2023-03-13T06:25:39;5.30;;;1.50;;
13477;SDS011;12598;62.382;17.344;2023-03-13T06:26:41;2.85;;;1.50;;
13477;SDS011;12598;62.382;17.344;2023-03-13T06:27:43;3.67;;;1.08;;
13477;SDS011;12598;62.382;17.344;2023-03-13T06:28:45;4.00;;;1.20;;
13477;SDS011;12598;62.382;17.344;2023-03-13T06:29:47;3.75;;;1.40;;
13477;SDS011;12598;62.382;17.344;2023-03-13T06:30:49;5.20;;;1.23;;
13477;SDS011;12598;62.382;17.344;2023-03-13T06:31:50;4.03;;;1.30;;
13477;SDS011;12598;62.382;17.344;2023-03-13T06:32:52;6.60;;;1.50;;
13477;SDS011;12598;62.382;17.344;2023-03-13T06:33:54;4.75;;;1.45;;
13477;SDS011;12598;62.382;17.344;2023-03-13T06:34:57;5.00;;;1.30;;
13477;SDS011;12598;62.382;17.344;2023-03-13T06:35:59;4.35;;;1.40;;
13477;SDS011;12598;62.382;17.344;2023-03-13T06:37:02;3.25;;;1.20;;
13477;SDS011;12598;62.382;17.344;2023-03-13T06:38:04;3.08;;;1.10;;
13477;SDS011;12598;62.382;17.344;2023-03-13T06:39:06;4.57;;;1.38;;
13477;SDS011;12598;62.382;17.344;2023-03-13T06:40:09;2.50;;;1.15;;
13477;SDS011;12598;62.382;17.344;2023-03-13T06:41:11;3.45;;;1.05;;
13477;SDS011;12598;62.382;17.344;2023-03-13T06:42:13;3.03;;;1.20;;
13477;SDS011;12598;62.382;17.344;2023-03-13T06:43:15;2.50;;;1.23;;
13477;SDS011;12598;62.382;17.344;2023-03-13T06:44:17;2.15;;;1.13;;
13477;SDS011;12598;62.382;17.344;2023-03-13T06:45:18;3.20;;;1.25;;
13477;SDS011;12598;62.382;17.344;2023-03-13T06:46:21;2.15;;;1.40;;
13477;SDS011;12598;62.382;17.344;2023-03-13T06:47:25;2.95;;;1.17;;